Pomona, MO

6:18 AM CDT on September 01, 2015 (GMT -0500)
West Plains Municipal | | Change Station
CLOSE
Current Station
Airport
Location: West Plains,
Elevation: 1227 ft
Nearby Weather Stations

Elev 1227 ft 36.88 °N, 91.91 °W | Updated 25 minutes ago

Clear
Clear
70 °F
Feels Like 70 °F
N
0
Wind Variable Wind from North

Today
High -- | Low -- °F
--% Chance of Precip.
Yesterday
High -- | Low -- °F
Precip. -- in
6:38 AM 7:36 PM
Waning Gibbous, 89% visible
Pressure 30.09 in
Visibility 7.0 miles
Clouds Clear
Dew Point 66 °F
Humidity 87%
Rainfall 0.00 in
Snow Depth Not available.
UV 0 out of 12
Pollen 10.60 out of 12
Air Quality Not available.
Flu Activity Not available.
METAR KUNO 011053Z AUTO 00000KT 7SM CLR 21/19 A3013 RMK AO2 SLP188 T02110189
Pressure 30.09 in
Visibility 7.0 miles
Clouds Clear
Dew Point 66 °F
Humidity 87%
Rainfall 0.00 in
Snow Depth Not available.
UV 0 out of 12
Pollen 10.60 out of 12
Air Quality Not available.
Flu Activity Not available.
METAR KUNO 011053Z AUTO 00000KT 7SM CLR 21/19 A3013 RMK AO2 SLP188 T02110189

10-Day Weather Forecast

×

Almanac

Astronomy

Sep. 01, 2015 Rise Set
Actual Time
Civil Twilight
Nautical Twilight
Astronomical Twilight
Moon
Length of Visible Light
Length of Day
Tomorrow will be .
, % of the Moon is Illuminated

Today's Extremes

State Highs State Lows

Community

WunderPhotos

Upload Photos

1,851,501 photos uploaded!

WunderBlogs® & News

Nearby

Air Quality

  Air Quality AQ Index Pollutant
Not available.

Snow Depth

Station Depth Elevation

Earthquake Activity

City Distance Mag. Time & Date
Minimum magnitude displayed is 2.5.

Coastal Water Temperatures

Place Temperature

Stations

Nearby Weather Stations

Station Location Temp. Windchill Dew Point Humidity Wind Precip. Elev Updated Type